Aérodrome :
LOGIN :

S'inscrire | Disclaimer

   EN    FR    IT 

 










Légende :    VFR   VFR Marginal   IFR   IFR Intensif   IFR Très Intensif
Visi : 
Plafond : 
>= 8 km
>= 3000ft
5 à 8 km
1000 à 3000 ft
1500m à 5 km
500 à 1000 ft
800 à 1500m
200 à 500 ft
< 800m
< 200 ft
Symboles :   Orages  Brouillard  Fortes neiges  Fortes précipitations  Vent > 20 kt
SIGMETs :   Divers  Orages  Givrage  Turbulence  Onde Orograph.  Cendres Volcan.







- Altitude de l'aérodrome : 400 ft
- Code IATA : BNX


LQBK - Banja Luka

DERNIER METAR :
  • 241530Z 35006KT 290V030 9999 FEW035 26/17 Q1014 NOSIG

METARs EXPIRÉS :
  • 241500Z 34005KT 310V040 9999 FEW035 26/17 Q1015 NOSIG
  • 241400Z 03004KT 350V080 9999 SCT040 27/17 Q1015 NOSIG
  • 241330Z 13003KT 9999 SCT040 27/16 Q1015 NOSIG
  • 241300Z 30002KT 9999 SCT040 26/17 Q1016 NOSIG

TAF TAF LQBK
Valide du 24 à 12h jusqu'au 25 à 12h UTC


241100Z 2412/2512 03005KT 9999 SCT035 TX26/2412Z TN15/2504Z
PROB40
TEMPO 2412/2420 VRB15KT 4000 TSRA FEW010 FEW030CB BKN040
PROB30
TEMPO 2502/2508 1500 BCFG
Pas de NOTAMs connus pour ce terrain.



MET'MAP, la Météo Aéronautique d'un coup d'oeil ! - Copyright ORBIFLY Décembre 2007 - Disclaimer

ORBIFLY MET'MAP TEAM :

Programmation & Développement : Alexandra Zaïnal
Conception & Développement : Baudouin d'Aumeries
Co-Programmation & Développement : Marc-Olivier Méhu
Soutien technique & logistique : Manuel Goepfert

Contact : metmap@orbifly.com




SOURCES & CREDITS :

   NOAA